createdAt,value
2018-12-23T00:02:18.226Z,9.70
2018-12-23T00:04:52.989Z,9.70
2018-12-23T00:07:28.576Z,9.80
2018-12-23T00:10:03.538Z,9.80
2018-12-23T00:12:38.612Z,9.80
2018-12-23T00:15:17.912Z,9.90
2018-12-23T00:17:52.824Z,9.90
2018-12-23T00:20:30.490Z,10.00
2018-12-23T00:25:33.381Z,10.00
2018-12-23T00:28:08.250Z,10.00
2018-12-23T00:30:43.111Z,10.00
2018-12-23T00:33:18.503Z,10.00
2018-12-23T00:35:53.877Z,9.90
2018-12-23T00:38:29.522Z,9.90
2018-12-23T00:41:05.465Z,9.90
2018-12-23T00:43:41.441Z,9.80
2018-12-23T00:46:16.319Z,9.80
2018-12-23T00:48:55.860Z,9.70
2018-12-23T00:51:31.154Z,9.70
2018-12-23T00:54:06.116Z,9.70
2018-12-23T00:56:42.316Z,9.70
2018-12-23T00:59:22.891Z,9.70
2018-12-23T01:01:57.796Z,9.60
2018-12-23T01:04:32.721Z,9.50
2018-12-23T01:07:07.672Z,9.50
2018-12-23T01:09:42.715Z,9.50
2018-12-23T01:12:17.645Z,9.50
2018-12-23T01:15:00.166Z,9.40
2018-12-23T01:17:40.246Z,9.40
2018-12-23T01:20:15.383Z,9.40
2018-12-23T01:22:54.633Z,9.40
2018-12-23T01:25:31.112Z,9.40
2018-12-23T01:28:05.994Z,9.30
2018-12-23T01:30:46.544Z,9.30
2018-12-23T01:33:22.633Z,9.30
2018-12-23T01:39:13.518Z,9.20
2018-12-23T01:42:02.617Z,9.20
2018-12-23T01:44:51.765Z,9.20
2018-12-23T01:47:40.867Z,9.20
2018-12-23T01:50:29.935Z,9.10
2018-12-23T01:53:18.618Z,9.10
2018-12-23T01:56:07.067Z,9.10
2018-12-23T01:58:56.022Z,9.10
2018-12-23T02:01:45.260Z,9.10
2018-12-23T02:04:34.830Z,9.10
2018-12-23T02:07:24.618Z,9.00
2018-12-23T02:10:14.120Z,9.00
2018-12-23T02:13:02.575Z,9.00
2018-12-23T02:15:51.567Z,9.10
2018-12-23T02:18:40.355Z,9.10
2018-12-23T02:21:29.363Z,9.10
2018-12-23T02:24:19.255Z,9.10
2018-12-23T02:27:09.228Z,9.00
2018-12-23T02:29:57.704Z,9.00
2018-12-23T02:32:48.421Z,9.00
2018-12-23T02:35:38.362Z,9.10
2018-12-23T02:38:26.711Z,9.10
2018-12-23T02:41:15.387Z,9.10
2018-12-23T02:44:04.825Z,9.10
2018-12-23T02:46:53.555Z,9.10
2018-12-23T02:49:42.240Z,9.10
2018-12-23T02:52:31.017Z,9.20
2018-12-23T02:55:21.880Z,9.20
2018-12-23T02:58:10.588Z,9.20
2018-12-23T03:00:59.652Z,9.20
2018-12-23T03:03:48.413Z,9.20
2018-12-23T03:06:37.747Z,9.10
2018-12-23T03:09:26.644Z,9.20
2018-12-23T03:12:15.975Z,9.20
2018-12-23T03:15:05.069Z,9.20
2018-12-23T03:17:53.634Z,9.20
2018-12-23T03:20:42.577Z,9.20
2018-12-23T03:23:31.403Z,9.20
2018-12-23T03:26:20.008Z,9.20
2018-12-23T03:29:08.496Z,9.20
2018-12-23T03:31:59.784Z,9.20
2018-12-23T03:34:48.846Z,9.30
2018-12-23T03:37:38.074Z,9.30
2018-12-23T03:40:26.676Z,9.40
2018-12-23T03:43:15.459Z,9.30
2018-12-23T03:46:04.861Z,9.30
2018-12-23T03:48:54.242Z,9.40
2018-12-23T03:51:42.622Z,9.40
2018-12-23T03:54:31.473Z,9.40
2018-12-23T03:57:20.974Z,9.40
2018-12-23T04:00:12.243Z,9.40
2018-12-23T04:03:02.126Z,9.40
2018-12-23T04:05:52.434Z,9.30
2018-12-23T04:08:41.275Z,9.40
2018-12-23T04:11:31.130Z,9.40
2018-12-23T04:14:20.752Z,9.40
2018-12-23T04:17:10.669Z,9.30
2018-12-23T04:20:00.016Z,9.30
2018-12-23T04:22:48.819Z,9.30
2018-12-23T04:25:37.532Z,9.30
2018-12-23T04:28:26.086Z,9.30
2018-12-23T04:31:16.480Z,9.30
2018-12-23T04:34:06.080Z,9.30
2018-12-23T04:36:54.862Z,9.30
2018-12-23T04:39:45.158Z,9.30
2018-12-23T04:42:37.946Z,9.30
2018-12-23T04:45:26.516Z,9.30
2018-12-23T04:48:15.429Z,9.30
2018-12-23T04:51:04.122Z,9.30
2018-12-23T04:53:54.141Z,9.30
2018-12-23T04:56:45.655Z,9.40
2018-12-23T04:59:34.750Z,9.40
2018-12-23T05:02:23.639Z,9.50
2018-12-23T05:05:13.753Z,9.60
2018-12-23T05:08:06.504Z,9.50
2018-12-23T05:10:55.744Z,9.60
2018-12-23T05:13:44.971Z,9.60
2018-12-23T05:16:34.827Z,9.70
2018-12-23T05:19:28.198Z,9.60
2018-12-23T05:22:25.605Z,9.60
2018-12-23T05:25:18.182Z,9.60
2018-12-23T05:28:07.474Z,9.60
2018-12-23T05:30:56.525Z,9.60
2018-12-23T05:33:44.898Z,9.50
2018-12-23T05:36:33.603Z,9.60
2018-12-23T05:39:22.466Z,9.50
2018-12-23T05:42:12.910Z,9.50
2018-12-23T05:45:03.186Z,9.50
2018-12-23T05:47:51.978Z,9.50
2018-12-23T05:50:40.384Z,9.50
2018-12-23T05:53:29.137Z,9.50
2018-12-23T05:56:18.251Z,9.50
2018-12-23T05:59:07.625Z,9.50
2018-12-23T06:01:56.689Z,9.40
2018-12-23T06:04:45.266Z,9.50
2018-12-23T06:07:35.052Z,9.40
2018-12-23T06:10:23.815Z,9.40
2018-12-23T06:13:14.412Z,9.40
2018-12-23T06:16:04.190Z,9.40
2018-12-23T06:18:53.140Z,9.40
2018-12-23T06:21:42.851Z,9.40
2018-12-23T06:24:33.653Z,9.30
2018-12-23T06:27:22.517Z,9.40
2018-12-23T06:30:11.105Z,9.40
2018-12-23T06:32:59.751Z,9.30
2018-12-23T06:35:48.781Z,9.30
2018-12-23T06:38:37.223Z,9.20
2018-12-23T06:41:25.958Z,9.30
2018-12-23T06:44:14.575Z,9.30
2018-12-23T06:47:03.691Z,9.20
2018-12-23T06:49:55.207Z,9.30
2018-12-23T06:52:48.153Z,9.30
2018-12-23T06:55:38.329Z,9.30
2018-12-23T06:58:28.821Z,9.30
2018-12-23T07:01:17.622Z,9.30
2018-12-23T07:04:07.961Z,9.30
2018-12-23T07:06:59.309Z,9.30
2018-12-23T07:09:49.334Z,9.30
2018-12-23T07:12:38.075Z,9.40
2018-12-23T07:15:26.893Z,9.30
2018-12-23T07:18:15.686Z,9.40
2018-12-23T07:21:04.156Z,9.30
2018-12-23T07:23:52.937Z,9.30
2018-12-23T07:26:43.621Z,9.30
2018-12-23T07:29:32.217Z,9.20
2018-12-23T07:32:21.193Z,9.20
2018-12-23T07:35:09.923Z,9.20
2018-12-23T07:37:59.058Z,9.30
2018-12-23T07:40:47.274Z,9.30
2018-12-23T07:43:37.675Z,9.40
2018-12-23T07:46:25.900Z,9.30
2018-12-23T07:49:14.606Z,9.30
2018-12-23T07:52:03.128Z,9.40
2018-12-23T07:54:52.114Z,9.50
2018-12-23T07:57:40.437Z,9.50
2018-12-23T08:00:28.972Z,9.50
2018-12-23T08:03:17.306Z,9.60
2018-12-23T08:06:07.311Z,9.60
2018-12-23T08:08:55.408Z,9.60
2018-12-23T08:11:44.310Z,9.60
2018-12-23T08:14:33.132Z,9.60
2018-12-23T08:17:22.382Z,9.70
2018-12-23T08:20:11.206Z,9.70
2018-12-23T08:22:59.740Z,9.60
2018-12-23T08:25:49.107Z,9.70
2018-12-23T08:28:38.059Z,9.60
2018-12-23T08:31:26.791Z,9.60
2018-12-23T08:34:19.345Z,9.60
2018-12-23T08:37:08.477Z,9.60
2018-12-23T08:39:59.745Z,9.70
2018-12-23T08:42:49.691Z,9.70
2018-12-23T08:45:39.540Z,9.80
2018-12-23T08:48:28.436Z,9.80
2018-12-23T08:51:17.270Z,9.80
2018-12-23T08:54:06.218Z,9.80
2018-12-23T08:56:55.345Z,9.80
2018-12-23T08:59:44.461Z,9.80
2018-12-23T09:02:35.572Z,9.80
2018-12-23T09:05:25.971Z,9.90
2018-12-23T09:08:14.675Z,9.90
2018-12-23T09:11:03.703Z,9.80
2018-12-23T09:13:52.357Z,9.90
2018-12-23T09:16:40.723Z,9.90
2018-12-23T09:19:29.275Z,9.90
2018-12-23T09:22:18.765Z,9.90
2018-12-23T09:25:07.749Z,9.90
2018-12-23T09:27:56.214Z,9.80
2018-12-23T09:30:45.296Z,9.80
2018-12-23T09:33:34.109Z,9.70
2018-12-23T09:36:22.582Z,9.60
2018-12-23T09:39:14.309Z,9.60
2018-12-23T09:42:03.237Z,9.50
2018-12-23T09:44:51.943Z,9.60
2018-12-23T09:47:42.764Z,9.60
2018-12-23T09:50:31.455Z,9.60
2018-12-23T09:53:21.833Z,9.50
2018-12-23T09:56:12.903Z,9.50
2018-12-23T09:59:01.774Z,9.50
2018-12-23T10:01:50.612Z,9.40
2018-12-23T10:04:39.302Z,9.40
2018-12-23T10:07:31.378Z,9.40
2018-12-23T10:10:28.176Z,9.40
2018-12-23T10:13:10.736Z,9.50
2018-12-23T10:16:01.406Z,9.50
2018-12-23T10:18:51.893Z,9.50
2018-12-23T10:21:40.632Z,9.50
2018-12-23T10:24:29.794Z,9.60
2018-12-23T10:27:20.389Z,9.60
2018-12-23T10:30:17.881Z,9.60
2018-12-23T10:33:06.229Z,9.60
2018-12-23T10:35:55.250Z,9.60
2018-12-23T10:38:43.964Z,9.50
2018-12-23T10:41:32.600Z,9.50
2018-12-23T10:44:21.463Z,9.50
2018-12-23T10:47:10.153Z,9.50
2018-12-23T10:49:58.847Z,9.50
2018-12-23T10:52:47.068Z,9.50
2018-12-23T10:55:35.655Z,9.50
2018-12-23T11:03:42.917Z,9.50
2018-12-23T11:06:31.313Z,9.50
2018-12-23T11:09:20.271Z,9.60
2018-12-23T11:12:09.336Z,9.60
2018-12-23T11:14:58.596Z,9.60
2018-12-23T11:17:46.908Z,9.60
2018-12-23T11:20:35.231Z,9.60
2018-12-23T11:23:23.874Z,9.60
2018-12-23T11:26:12.573Z,9.60
2018-12-23T11:29:01.244Z,9.70
2018-12-23T11:31:50.210Z,9.70
2018-12-23T11:34:39.031Z,9.80
2018-12-23T11:37:27.414Z,9.80
2018-12-23T11:40:16.270Z,9.80
2018-12-23T11:43:05.266Z,9.80
2018-12-23T11:45:54.183Z,9.80
2018-12-23T11:48:42.669Z,9.80
2018-12-23T11:51:31.228Z,9.90
2018-12-23T11:54:19.609Z,9.90
2018-12-23T11:57:08.267Z,9.90
2018-12-23T11:59:56.689Z,9.90
2018-12-23T12:02:45.370Z,9.80
2018-12-23T12:05:33.575Z,9.80
2018-12-23T12:08:22.266Z,9.80
2018-12-23T12:11:11.167Z,9.80
2018-12-23T12:13:59.799Z,9.80
2018-12-23T12:16:48.688Z,9.80
2018-12-23T12:19:37.250Z,9.80
2018-12-23T12:22:25.854Z,9.80
2018-12-23T12:25:14.524Z,9.70
2018-12-23T12:28:03.279Z,9.70
2018-12-23T12:30:51.887Z,9.60
2018-12-23T12:33:40.530Z,9.60
2018-12-23T12:36:29.249Z,9.60
2018-12-23T12:39:17.618Z,9.60
2018-12-23T12:42:06.169Z,9.60
2018-12-23T12:44:54.505Z,9.60
2018-12-23T12:47:43.391Z,9.60
2018-12-23T12:50:31.841Z,9.60
2018-12-23T12:53:20.454Z,9.60
2018-12-23T12:56:09.439Z,9.60
2018-12-23T12:58:57.966Z,9.60
2018-12-23T13:01:46.628Z,9.60
2018-12-23T13:04:35.454Z,9.60
2018-12-23T13:07:24.073Z,9.50
2018-12-23T13:10:12.634Z,9.50
2018-12-23T13:13:01.202Z,9.50
2018-12-23T13:15:50.352Z,9.50
2018-12-23T13:18:38.733Z,9.50
2018-12-23T13:21:26.961Z,9.40
2018-12-23T13:24:15.183Z,9.40
2018-12-23T13:27:03.827Z,9.30
2018-12-23T13:29:52.281Z,9.30
2018-12-23T13:32:40.475Z,9.30
2018-12-23T13:35:29.310Z,9.20
2018-12-23T13:38:18.545Z,9.20
2018-12-23T13:41:26.000Z,9.00
2018-12-23T13:45:02.357Z,9.00
2018-12-23T13:48:28.036Z,9.00
2018-12-23T13:51:41.044Z,8.90
2018-12-23T13:55:07.901Z,8.80
2018-12-23T13:58:32.999Z,8.70
2018-12-23T14:02:10.095Z,8.70
2018-12-23T14:05:38.861Z,8.60
2018-12-23T14:09:07.892Z,8.60
2018-12-23T14:11:59.823Z,8.60
2018-12-23T14:14:48.420Z,8.60
2018-12-23T14:17:37.123Z,8.70
2018-12-23T14:20:25.857Z,8.70
2018-12-23T14:23:14.676Z,8.80
2018-12-23T14:26:03.217Z,8.90
2018-12-23T14:28:51.619Z,9.00
2018-12-23T14:31:40.302Z,9.00
2018-12-23T14:34:30.723Z,9.10
2018-12-23T14:37:19.540Z,9.10
2018-12-23T14:40:08.219Z,9.20
2018-12-23T14:42:57.182Z,9.20
2018-12-23T14:45:46.010Z,9.30
2018-12-23T14:48:34.556Z,9.30
2018-12-23T14:51:23.352Z,9.30
2018-12-23T14:54:12.210Z,9.40
2018-12-23T14:57:00.717Z,9.40
2018-12-23T14:59:49.221Z,9.40
2018-12-23T15:02:37.665Z,9.50
2018-12-23T15:05:26.563Z,9.50
2018-12-23T15:08:15.697Z,9.60
2018-12-23T15:11:04.385Z,9.70
2018-12-23T15:13:52.740Z,9.80
2018-12-23T15:16:41.397Z,9.80
2018-12-23T15:19:30.573Z,9.90
2018-12-23T15:22:19.252Z,9.80
2018-12-23T15:25:08.452Z,9.80
2018-12-23T15:27:57.543Z,9.90
2018-12-23T15:30:46.657Z,9.90
2018-12-23T15:33:36.864Z,9.90
2018-12-23T15:36:25.999Z,9.90
2018-12-23T15:39:14.791Z,10.00
2018-12-23T15:42:03.169Z,10.10
2018-12-23T15:44:51.859Z,10.00
2018-12-23T15:47:40.290Z,10.00
2018-12-23T15:50:29.294Z,10.00
2018-12-23T15:53:19.330Z,10.10
2018-12-23T15:56:08.148Z,10.00
2018-12-23T15:58:57.067Z,10.00
2018-12-23T16:01:47.091Z,10.10
2018-12-23T16:04:42.006Z,10.10
2018-12-23T16:07:37.968Z,10.10
2018-12-23T16:10:22.254Z,10.10
2018-12-23T16:13:14.263Z,10.10
2018-12-23T16:16:03.343Z,10.10
2018-12-23T16:18:54.695Z,10.10
2018-12-23T16:21:43.861Z,10.10
2018-12-23T16:24:32.786Z,10.10
2018-12-23T16:27:35.033Z,10.20
2018-12-23T16:30:51.083Z,10.10
2018-12-23T16:33:40.304Z,10.10
2018-12-23T16:36:29.412Z,10.00
2018-12-23T16:39:23.608Z,10.00
2018-12-23T16:42:18.256Z,10.00
2018-12-23T16:45:08.785Z,10.10
2018-12-23T16:47:58.963Z,10.00
2018-12-23T16:50:48.649Z,10.10
2018-12-23T16:53:38.043Z,10.10
2018-12-23T16:56:27.851Z,10.00
2018-12-23T16:59:18.022Z,10.10
2018-12-23T17:02:09.989Z,10.10
2018-12-23T17:05:01.280Z,10.10
2018-12-23T17:07:55.188Z,10.20
2018-12-23T17:10:46.502Z,10.20
2018-12-23T17:13:38.466Z,10.20
2018-12-23T17:16:29.410Z,10.20
2018-12-23T17:19:19.355Z,10.20
2018-12-23T17:22:08.666Z,10.30
2018-12-23T17:24:57.357Z,10.30
2018-12-23T17:27:49.569Z,10.30
2018-12-23T17:30:38.695Z,10.40
2018-12-23T17:33:27.746Z,10.30
2018-12-23T17:36:17.056Z,10.30
2018-12-23T17:39:08.195Z,10.30
2018-12-23T17:41:57.098Z,10.30
2018-12-23T17:44:45.865Z,10.30
2018-12-23T17:47:34.962Z,10.30
2018-12-23T17:50:23.713Z,10.40
2018-12-23T17:53:12.448Z,10.40
2018-12-23T17:56:01.654Z,10.50
2018-12-23T17:58:50.477Z,10.50
2018-12-23T18:01:39.337Z,10.50
2018-12-23T18:04:28.175Z,10.50
2018-12-23T18:07:20.230Z,10.50
2018-12-23T18:10:09.566Z,10.40
2018-12-23T18:12:58.198Z,10.40
2018-12-23T18:15:46.705Z,10.40
2018-12-23T18:18:36.160Z,10.40
2018-12-23T18:21:24.776Z,10.40
2018-12-23T18:24:13.250Z,10.30
2018-12-23T18:27:01.964Z,10.30
2018-12-23T18:29:51.107Z,10.40
2018-12-23T18:32:41.156Z,10.40
2018-12-23T18:35:29.950Z,10.40
2018-12-23T18:38:18.645Z,10.40
2018-12-23T18:41:07.536Z,10.40
2018-12-23T18:43:56.432Z,10.40
2018-12-23T18:46:46.257Z,10.40
2018-12-23T18:49:35.190Z,10.40
2018-12-23T18:52:24.620Z,10.40
2018-12-23T18:55:14.792Z,10.40
2018-12-23T18:58:04.049Z,10.50
2018-12-23T19:00:58.658Z,10.50
2018-12-23T19:03:48.144Z,10.50
2018-12-23T19:06:37.564Z,10.40
2018-12-23T19:10:25.820Z,10.40
2018-12-23T19:14:02.114Z,10.30
2018-12-23T19:17:29.125Z,10.40
2018-12-23T19:20:55.630Z,10.30
2018-12-23T19:24:23.861Z,10.30
2018-12-23T19:28:01.312Z,10.30
2018-12-23T19:31:41.486Z,10.30
2018-12-23T19:35:19.678Z,10.30
2018-12-23T19:38:41.208Z,10.30
2018-12-23T19:42:41.844Z,10.30
2018-12-23T19:46:07.086Z,10.30
2018-12-23T19:49:25.375Z,10.30
2018-12-23T19:52:53.544Z,10.30
2018-12-23T19:56:31.363Z,10.30
2018-12-23T20:00:07.607Z,10.30
2018-12-23T20:03:52.044Z,10.20
2018-12-23T20:07:17.146Z,10.30
2018-12-23T20:10:58.925Z,10.30
2018-12-23T20:14:37.099Z,10.40
2018-12-23T20:18:02.050Z,10.40
2018-12-23T20:21:44.700Z,10.30
2018-12-23T20:25:03.478Z,10.40
2018-12-23T20:28:50.659Z,10.30
2018-12-23T20:32:08.409Z,10.30
2018-12-23T20:35:44.410Z,10.40
2018-12-23T20:39:12.415Z,10.30
2018-12-23T20:42:31.958Z,10.40
2018-12-23T20:46:01.134Z,10.40
2018-12-23T20:49:48.286Z,10.40
2018-12-23T20:53:12.451Z,10.40
2018-12-23T20:56:47.180Z,10.50
2018-12-23T20:59:59.086Z,10.50
2018-12-23T21:03:14.599Z,10.50
2018-12-23T21:06:35.401Z,10.50
2018-12-23T21:10:03.431Z,10.50
2018-12-23T21:13:48.123Z,10.60
2018-12-23T21:17:12.836Z,10.60
2018-12-23T21:20:45.352Z,10.60
2018-12-23T21:24:22.623Z,10.60
2018-12-23T21:28:06.097Z,10.60
2018-12-23T21:31:26.637Z,10.60
2018-12-23T21:34:53.731Z,10.70
2018-12-23T21:38:12.842Z,10.70
2018-12-23T21:41:38.589Z,10.70
2018-12-23T21:45:14.078Z,10.70
2018-12-23T21:48:51.941Z,10.70
2018-12-23T21:52:17.620Z,10.70
2018-12-23T21:55:37.695Z,10.70
2018-12-23T21:58:47.390Z,10.70
2018-12-23T22:02:17.742Z,10.70
2018-12-23T22:05:43.244Z,10.60
2018-12-23T22:08:55.958Z,10.60
2018-12-23T22:12:19.968Z,10.60
2018-12-23T22:15:08.874Z,10.60
2018-12-23T22:17:59.835Z,10.60
2018-12-23T22:20:48.841Z,10.60
2018-12-23T22:23:38.005Z,10.60
2018-12-23T22:26:27.128Z,10.60
2018-12-23T22:29:17.015Z,10.50
2018-12-23T22:32:14.951Z,10.60
2018-12-23T22:35:03.653Z,10.60
2018-12-23T22:37:52.489Z,10.60
2018-12-23T22:40:45.038Z,10.60
2018-12-23T22:43:34.043Z,10.60
2018-12-23T22:46:22.816Z,10.70
2018-12-23T22:49:11.659Z,10.60
2018-12-23T22:52:00.718Z,10.60
2018-12-23T22:54:49.311Z,10.60
2018-12-23T22:57:38.634Z,10.60
2018-12-23T23:00:33.576Z,10.60
2018-12-23T23:03:22.415Z,10.60
2018-12-23T23:06:11.141Z,10.60
2018-12-23T23:09:00.000Z,10.60
2018-12-23T23:11:49.961Z,10.70
2018-12-23T23:14:39.160Z,10.60
2018-12-23T23:17:28.013Z,10.70
2018-12-23T23:20:16.502Z,10.70
2018-12-23T23:23:07.178Z,10.80
2018-12-23T23:25:58.287Z,10.70
2018-12-23T23:28:47.031Z,10.70
2018-12-23T23:31:35.811Z,10.70
2018-12-23T23:34:24.419Z,10.80
2018-12-23T23:37:12.920Z,10.80
2018-12-23T23:40:02.677Z,10.80
2018-12-23T23:42:51.698Z,10.80
2018-12-23T23:45:40.427Z,10.80
2018-12-23T23:48:28.987Z,10.80
2018-12-23T23:51:17.496Z,10.80
2018-12-23T23:54:06.516Z,10.80
2018-12-23T23:56:55.375Z,10.80
2018-12-23T23:59:45.614Z,10.80
